createdAt,value
2023-02-12T00:01:02.471Z,-4.10
2023-02-12T00:02:34.791Z,-4.12
2023-02-12T00:04:06.991Z,-4.21
2023-02-12T00:05:39.974Z,-4.23
2023-02-12T00:07:12.058Z,-4.24
2023-02-12T00:08:44.387Z,-4.23
2023-02-12T00:10:16.497Z,-4.25
2023-02-12T00:11:48.670Z,-4.30
2023-02-12T00:13:20.964Z,-4.34
2023-02-12T00:14:53.004Z,-4.33
2023-02-12T00:16:31.357Z,-4.27
2023-02-12T00:18:03.536Z,-4.29
2023-02-12T00:19:35.733Z,-4.34
2023-02-12T00:21:11.613Z,-4.32
2023-02-12T00:22:43.724Z,-4.32
2023-02-12T00:24:15.882Z,-4.34
2023-02-12T00:25:48.002Z,-4.39
2023-02-12T00:27:20.056Z,-4.43
2023-02-12T00:28:52.739Z,-4.39
2023-02-12T00:30:24.909Z,-4.41
2023-02-12T00:31:57.184Z,-4.42
2023-02-12T00:33:29.281Z,-4.41
2023-02-12T00:35:01.423Z,-4.41
2023-02-12T00:36:33.763Z,-4.42
2023-02-12T00:38:05.874Z,-4.39
2023-02-12T00:39:38.435Z,-4.41
2023-02-12T00:41:13.759Z,-4.36
2023-02-12T00:42:45.911Z,-4.37
2023-02-12T00:44:18.074Z,-4.42
2023-02-12T00:45:50.316Z,-4.45
2023-02-12T00:47:22.594Z,-4.41
2023-02-12T00:48:54.792Z,-4.37
2023-02-12T00:50:27.665Z,-4.38
2023-02-12T00:52:02.256Z,-4.32
2023-02-12T00:53:34.875Z,-4.31
2023-02-12T00:55:07.021Z,-4.29
2023-02-12T00:56:38.977Z,-4.31
2023-02-12T00:58:11.157Z,-4.31
2023-02-12T00:59:43.221Z,-4.29
2023-02-12T01:01:15.259Z,-4.27
2023-02-12T01:02:47.261Z,-4.25
2023-02-12T01:04:19.531Z,-4.29
2023-02-12T01:05:52.117Z,-4.27
2023-02-12T01:07:25.329Z,-4.21
2023-02-12T01:08:57.353Z,-4.18
2023-02-12T01:10:29.474Z,-4.18
2023-02-12T01:12:04.890Z,-4.15
2023-02-12T01:13:36.896Z,-4.19
2023-02-12T01:15:10.780Z,-4.16
2023-02-12T01:16:42.922Z,-4.15
2023-02-12T01:18:16.475Z,-4.13
2023-02-12T01:19:48.264Z,-4.01
2023-02-12T01:21:23.169Z,-4.07
2023-02-12T01:22:55.200Z,-4.05
2023-02-12T01:24:27.198Z,-4.06
2023-02-12T01:25:59.196Z,-4.04
2023-02-12T01:27:31.243Z,-4.02
2023-02-12T01:29:07.345Z,-3.96
2023-02-12T01:30:39.374Z,-4.02
2023-02-12T01:32:12.177Z,-3.98
2023-02-12T01:33:44.558Z,-4.00
2023-02-12T01:35:16.571Z,-4.02
2023-02-12T01:36:48.606Z,-4.01
2023-02-12T01:38:20.862Z,-4.01
2023-02-12T01:39:53.025Z,-4.06
2023-02-12T01:41:28.450Z,-4.00
2023-02-12T01:43:03.897Z,-4.02
2023-02-12T01:44:37.391Z,-4.10
2023-02-12T01:46:10.591Z,-4.02
2023-02-12T01:47:44.557Z,-4.07
2023-02-12T01:49:25.240Z,-4.01
2023-02-12T01:50:58.608Z,-4.05
2023-02-12T01:52:33.599Z,-4.02
2023-02-12T01:54:08.515Z,-4.06
2023-02-12T01:55:41.160Z,-4.11
2023-02-12T01:57:14.667Z,-4.08
2023-02-12T01:58:47.104Z,-4.03
2023-02-12T02:00:25.163Z,-4.07
2023-02-12T02:01:57.286Z,-4.09
2023-02-12T02:03:29.567Z,-4.08
2023-02-12T02:05:04.624Z,-4.03
2023-02-12T02:06:40.661Z,-4.08
2023-02-12T02:08:13.111Z,-4.11
2023-02-12T02:09:45.240Z,-4.12
2023-02-12T02:11:35.729Z,-4.15
2023-02-12T02:13:26.316Z,-4.11
2023-02-12T02:15:00.353Z,-4.06
2023-02-12T02:16:35.535Z,-4.04
2023-02-12T02:18:09.409Z,-4.07
2023-02-12T02:20:02.855Z,-3.98
2023-02-12T02:21:51.725Z,-4.00
2023-02-12T02:23:23.662Z,-4.02
2023-02-12T02:25:32.789Z,-3.94
2023-02-12T02:27:43.056Z,-3.93
2023-02-12T02:29:21.854Z,-3.96
2023-02-12T02:31:01.271Z,-3.94
2023-02-12T02:32:58.070Z,-3.94
2023-02-12T02:34:41.430Z,-4.00
2023-02-12T02:36:26.121Z,-3.98
2023-02-12T02:38:21.638Z,-3.92
2023-02-12T02:40:00.422Z,-3.94
2023-02-12T02:42:11.117Z,-3.97
2023-02-12T02:43:51.445Z,-3.97
2023-02-12T02:45:34.140Z,-3.97
2023-02-12T02:47:09.310Z,-3.98
2023-02-12T02:49:02.746Z,-3.96
2023-02-12T02:50:36.917Z,-3.97
2023-02-12T02:52:13.098Z,-3.95
2023-02-12T02:54:08.154Z,-3.93
2023-02-12T02:55:44.787Z,-3.84
2023-02-12T02:57:36.276Z,-3.83
2023-02-12T02:59:13.671Z,-3.80
2023-02-12T03:00:52.367Z,-3.76
2023-02-12T03:02:31.852Z,-3.73
2023-02-12T03:04:09.505Z,-3.71
2023-02-12T03:05:47.934Z,-3.71
2023-02-12T03:07:33.297Z,-3.73
2023-02-12T03:09:12.972Z,-3.73
2023-02-12T03:10:47.721Z,-3.73
2023-02-12T03:12:26.348Z,-3.73
2023-02-12T03:14:13.521Z,-3.73
2023-02-12T03:15:50.179Z,-3.74
2023-02-12T03:17:28.503Z,-3.69
2023-02-12T03:19:25.936Z,-3.64
2023-02-12T03:21:06.058Z,-3.63
2023-02-12T03:22:41.328Z,-3.62
2023-02-12T03:24:33.574Z,-3.58
2023-02-12T03:26:09.288Z,-3.59
2023-02-12T03:27:57.132Z,-3.56
2023-02-12T03:29:29.331Z,-3.58
2023-02-12T03:31:16.793Z,-3.51
2023-02-12T03:33:07.451Z,-3.48
2023-02-12T03:34:50.960Z,-3.41
2023-02-12T03:36:32.440Z,-3.38
2023-02-12T03:38:23.313Z,-3.33
2023-02-12T03:40:19.307Z,-3.29
2023-02-12T03:42:07.401Z,-3.26
2023-02-12T03:44:02.853Z,-3.21
2023-02-12T03:45:49.804Z,-3.18
2023-02-12T03:47:32.287Z,-3.16
2023-02-12T03:49:46.877Z,-3.12
2023-02-12T03:51:40.321Z,-3.08
2023-02-12T03:53:12.688Z,-3.12
2023-02-12T03:54:44.797Z,-3.09
2023-02-12T03:56:20.841Z,-3.04
2023-02-12T03:57:59.891Z,-3.03
2023-02-12T03:59:32.043Z,-3.04
2023-02-12T04:01:04.349Z,-3.00
2023-02-12T04:02:37.000Z,-3.00
2023-02-12T04:04:10.327Z,-2.94
2023-02-12T04:05:42.340Z,-2.97
2023-02-12T04:07:14.843Z,-2.92
2023-02-12T04:08:46.881Z,-2.90
2023-02-12T04:10:22.409Z,-2.83
2023-02-12T04:12:16.311Z,-2.77
2023-02-12T04:14:19.185Z,-2.79
2023-02-12T04:16:04.497Z,-2.75
2023-02-12T04:17:47.940Z,-2.72
2023-02-12T04:19:33.895Z,-2.69
2023-02-12T04:21:08.928Z,-2.66
2023-02-12T04:23:05.344Z,-2.62
2023-02-12T04:24:45.439Z,-2.64
2023-02-12T04:26:29.350Z,-2.62
2023-02-12T04:28:12.090Z,-2.65
2023-02-12T04:30:00.919Z,-2.61
2023-02-12T04:31:59.574Z,-2.56
2023-02-12T04:33:38.713Z,-2.53
2023-02-12T04:35:16.630Z,-2.55
2023-02-12T04:37:18.438Z,-2.46
2023-02-12T04:39:02.733Z,-2.46
2023-02-12T04:40:35.370Z,-2.48
2023-02-12T04:42:07.951Z,-2.46
2023-02-12T04:43:40.162Z,-2.46
2023-02-12T04:45:13.784Z,-2.41
2023-02-12T04:46:45.618Z,-2.34
2023-02-12T04:48:17.686Z,-2.37
2023-02-12T04:49:49.744Z,-2.36
2023-02-12T04:51:21.840Z,-2.35
2023-02-12T04:52:53.922Z,-2.34
2023-02-12T04:54:26.015Z,-2.34
2023-02-12T04:55:58.370Z,-2.33
2023-02-12T04:57:30.636Z,-2.34
2023-02-12T04:59:02.728Z,-2.30
2023-02-12T05:00:36.166Z,-2.25
2023-02-12T05:02:08.486Z,-2.25
2023-02-12T05:03:40.694Z,-2.25
2023-02-12T05:05:12.748Z,-2.22
2023-02-12T05:06:45.766Z,-2.21
2023-02-12T05:08:17.746Z,-2.22
2023-02-12T05:09:49.735Z,-2.20
2023-02-12T05:11:21.780Z,-2.17
2023-02-12T05:12:54.909Z,-2.12
2023-02-12T05:14:26.945Z,-2.13
2023-02-12T05:15:59.172Z,-2.13
2023-02-12T05:17:31.419Z,-2.11
2023-02-12T05:19:03.521Z,-2.09
2023-02-12T05:20:35.579Z,-2.10
2023-02-12T05:22:07.655Z,-2.09
2023-02-12T05:23:40.491Z,-2.04
2023-02-12T05:25:12.525Z,-2.04
2023-02-12T05:26:44.727Z,-2.04
2023-02-12T05:28:16.849Z,-2.01
2023-02-12T05:29:48.944Z,-1.98
2023-02-12T05:31:21.879Z,-1.96
2023-02-12T05:32:54.097Z,-1.96
2023-02-12T05:34:26.108Z,-1.96
2023-02-12T05:36:07.391Z,-1.88
2023-02-12T05:37:39.561Z,-1.94
2023-02-12T05:39:11.852Z,-1.92
2023-02-12T05:40:44.022Z,-1.92
2023-02-12T05:42:16.054Z,-1.86
2023-02-12T05:43:49.828Z,-1.84
2023-02-12T05:45:22.108Z,-1.83
2023-02-12T05:46:54.216Z,-1.83
2023-02-12T05:48:26.723Z,-1.79
2023-02-12T05:49:58.814Z,-1.76
2023-02-12T05:51:32.502Z,-1.73
2023-02-12T05:53:04.679Z,-1.72
2023-02-12T05:54:36.830Z,-1.72
2023-02-12T05:56:25.287Z,-1.67
2023-02-12T05:57:57.376Z,-1.66
2023-02-12T05:59:29.492Z,-1.63
2023-02-12T06:01:01.576Z,-1.63
2023-02-12T06:02:36.288Z,-1.56
2023-02-12T06:04:14.560Z,-1.53
2023-02-12T06:05:51.466Z,-1.52
2023-02-12T06:07:23.759Z,-1.53
2023-02-12T06:08:56.392Z,-1.49
2023-02-12T06:10:28.602Z,-1.49
2023-02-12T06:12:00.734Z,-1.45
2023-02-12T06:13:33.552Z,-1.38
2023-02-12T06:15:05.885Z,-1.36
2023-02-12T06:16:38.118Z,-1.37
2023-02-12T06:18:10.250Z,-1.39
2023-02-12T06:19:42.444Z,-1.38
2023-02-12T06:21:14.776Z,-1.35
2023-02-12T06:22:46.866Z,-1.33
2023-02-12T06:24:19.293Z,-1.31
2023-02-12T06:25:52.145Z,-1.28
2023-02-12T06:27:24.212Z,-1.26
2023-02-12T06:28:56.360Z,-1.29
2023-02-12T06:30:28.394Z,-1.25
2023-02-12T06:32:00.493Z,-1.23
2023-02-12T06:33:33.308Z,-1.20
2023-02-12T06:35:05.946Z,-1.16
2023-02-12T06:36:39.497Z,-1.12
2023-02-12T06:38:11.381Z,-1.06
2023-02-12T06:39:43.411Z,-1.12
2023-02-12T06:41:15.892Z,-1.11
2023-02-12T06:42:50.152Z,-1.06
2023-02-12T06:44:22.533Z,-1.05
2023-02-12T06:45:54.888Z,-1.01
2023-02-12T06:47:28.113Z,-0.98
2023-02-12T06:49:01.635Z,-0.94
2023-02-12T06:50:33.647Z,-0.89
2023-02-12T06:52:05.809Z,-0.93
2023-02-12T06:53:38.411Z,-0.87
2023-02-12T06:55:10.467Z,-0.87
2023-02-12T06:56:42.870Z,-0.85
2023-02-12T06:58:15.005Z,-0.85
2023-02-12T06:59:47.291Z,-0.82
2023-02-12T07:01:22.131Z,-0.73
2023-02-12T07:02:59.919Z,-0.65
2023-02-12T07:04:32.127Z,-0.66
2023-02-12T07:06:04.565Z,-0.56
2023-02-12T07:07:36.944Z,-0.53
2023-02-12T07:09:09.212Z,-0.48
2023-02-12T07:10:41.277Z,-0.42
2023-02-12T07:12:13.400Z,-0.38
2023-02-12T07:13:45.918Z,-0.30
2023-02-12T07:15:18.144Z,-0.26
2023-02-12T07:16:50.265Z,-0.19
2023-02-12T07:18:22.437Z,-0.13
2023-02-12T07:19:54.424Z,-0.07
2023-02-12T07:21:26.513Z,0.03
2023-02-12T07:22:58.548Z,0.09
2023-02-12T07:24:30.950Z,0.16
2023-02-12T07:26:11.676Z,0.28
2023-02-12T07:27:43.823Z,0.30
2023-02-12T07:29:16.508Z,0.36
2023-02-12T07:30:48.516Z,0.42
2023-02-12T07:32:20.816Z,0.46
2023-02-12T07:33:57.782Z,0.57
2023-02-12T07:35:29.850Z,0.58
2023-02-12T07:37:01.901Z,0.63
2023-02-12T07:38:36.445Z,0.67
2023-02-12T07:40:09.353Z,0.71
2023-02-12T07:41:41.424Z,0.73
2023-02-12T07:43:13.590Z,0.78
2023-02-12T07:44:46.059Z,0.81
2023-02-12T07:46:21.103Z,0.87
2023-02-12T07:47:53.386Z,0.86
2023-02-12T07:49:25.506Z,0.93
2023-02-12T07:51:00.585Z,0.97
2023-02-12T07:52:32.643Z,1.00
2023-02-12T07:54:04.995Z,1.07
2023-02-12T07:55:37.048Z,1.11
2023-02-12T07:57:09.032Z,1.13
2023-02-12T07:58:42.334Z,1.19
2023-02-12T08:00:15.207Z,1.25
2023-02-12T08:01:52.283Z,1.33
2023-02-12T08:03:24.363Z,1.29
2023-02-12T08:04:57.738Z,1.36
2023-02-12T08:06:32.938Z,1.39
2023-02-12T08:08:05.114Z,1.39
2023-02-12T08:09:39.698Z,1.48
2023-02-12T08:11:13.407Z,1.48
2023-02-12T08:12:45.587Z,1.52
2023-02-12T08:14:19.726Z,1.59
2023-02-12T08:16:00.546Z,1.66
2023-02-12T08:17:32.767Z,1.67
2023-02-12T08:19:16.948Z,1.71
2023-02-12T08:20:51.168Z,1.72
2023-02-12T08:22:23.274Z,1.72
2023-02-12T08:23:56.941Z,1.77
2023-02-12T08:25:29.046Z,1.80
2023-02-12T08:27:01.115Z,1.86
2023-02-12T08:28:33.399Z,1.90
2023-02-12T08:30:05.788Z,2.00
2023-02-12T08:31:43.186Z,2.11
2023-02-12T08:33:15.356Z,2.10
2023-02-12T08:34:47.524Z,2.13
2023-02-12T08:36:24.164Z,2.22
2023-02-12T08:37:56.303Z,2.23
2023-02-12T08:39:30.039Z,2.30
2023-02-12T08:41:04.016Z,2.34
2023-02-12T08:42:36.235Z,2.39
2023-02-12T08:44:08.864Z,2.52
2023-02-12T08:45:41.158Z,2.65
2023-02-12T08:47:13.277Z,2.76
2023-02-12T08:48:46.018Z,2.88
2023-02-12T08:50:18.325Z,2.91
2023-02-12T08:51:52.642Z,2.99
2023-02-12T08:53:25.160Z,3.02
2023-02-12T08:54:57.377Z,3.07
2023-02-12T08:56:31.378Z,3.14
2023-02-12T08:58:04.143Z,3.18
2023-02-12T08:59:36.324Z,3.29
2023-02-12T09:01:14.031Z,3.37
2023-02-12T09:02:49.012Z,3.47
2023-02-12T09:04:27.126Z,3.55
2023-02-12T09:05:59.285Z,3.57
2023-02-12T09:07:32.491Z,3.63
2023-02-12T09:09:04.602Z,3.64
2023-02-12T09:10:41.159Z,3.71
2023-02-12T09:12:13.284Z,3.71
2023-02-12T09:13:46.931Z,3.75
2023-02-12T09:15:18.761Z,3.75
2023-02-12T09:16:53.316Z,3.69
2023-02-12T09:18:25.524Z,3.78
2023-02-12T09:19:57.937Z,3.81
2023-02-12T09:21:30.395Z,3.78
2023-02-12T09:24:41.322Z,3.82
2023-02-12T09:26:15.779Z,3.89
2023-02-12T09:27:47.882Z,3.79
2023-02-12T09:29:19.968Z,3.80
2023-02-12T09:30:52.205Z,3.83
2023-02-12T09:32:24.368Z,3.79
2023-02-12T09:34:00.268Z,3.83
2023-02-12T09:35:35.437Z,3.74
2023-02-12T09:37:07.594Z,3.69
2023-02-12T09:38:40.055Z,3.72
2023-02-12T09:40:45.399Z,3.82
2023-02-12T09:42:56.018Z,3.85
2023-02-12T09:44:37.252Z,3.89
2023-02-12T09:46:19.809Z,3.88
2023-02-12T09:47:54.845Z,3.88
2023-02-12T09:49:33.098Z,3.94
2023-02-12T09:51:08.133Z,3.92
2023-02-12T09:54:22.569Z,3.94
2023-02-12T09:55:55.433Z,3.89
2023-02-12T09:57:38.114Z,3.92
2023-02-12T09:59:10.295Z,3.89
2023-02-12T10:00:42.403Z,3.90
2023-02-12T10:02:19.233Z,3.92
2023-02-12T10:03:52.475Z,3.89
2023-02-12T10:05:39.324Z,3.89
2023-02-12T10:07:32.187Z,3.94
2023-02-12T10:09:25.968Z,3.93
2023-02-12T10:11:04.655Z,3.89
2023-02-12T10:13:05.849Z,3.85
2023-02-12T10:14:44.861Z,3.85
2023-02-12T10:16:45.704Z,3.95
2023-02-12T10:18:33.310Z,3.95
2023-02-12T10:20:17.305Z,3.96
2023-02-12T10:23:25.234Z,3.96
2023-02-12T10:25:17.395Z,4.00
2023-02-12T10:26:56.752Z,4.00
2023-02-12T10:28:43.565Z,4.04
2023-02-12T10:30:25.371Z,4.03
2023-02-12T10:32:12.235Z,4.00
2023-02-12T10:33:50.111Z,4.04
2023-02-12T10:35:23.633Z,4.03
2023-02-12T10:37:02.892Z,4.04
2023-02-12T10:38:37.979Z,4.07
2023-02-12T10:40:30.417Z,4.05
2023-02-12T10:42:13.606Z,4.12
2023-02-12T10:43:45.852Z,4.05
2023-02-12T10:45:21.904Z,4.10
2023-02-12T10:46:54.157Z,4.08
2023-02-12T10:48:39.563Z,4.09
2023-02-12T10:50:21.373Z,4.14
2023-02-12T10:51:53.335Z,4.09
2023-02-12T10:53:30.503Z,4.11
2023-02-12T10:55:02.658Z,4.11
2023-02-12T10:56:37.511Z,4.15
2023-02-12T10:58:20.900Z,4.16
2023-02-12T10:59:54.922Z,4.13
2023-02-12T11:01:28.880Z,4.16
2023-02-12T11:03:05.805Z,4.15
2023-02-12T11:04:38.111Z,4.12
2023-02-12T11:06:16.782Z,4.21
2023-02-12T11:07:50.695Z,4.24
2023-02-12T11:09:29.838Z,4.24
2023-02-12T11:11:08.984Z,4.21
2023-02-12T11:12:48.438Z,4.24
2023-02-12T11:14:22.125Z,4.26
2023-02-12T11:15:55.238Z,4.28
2023-02-12T11:17:34.526Z,4.32
2023-02-12T11:19:08.528Z,4.33
2023-02-12T11:22:26.114Z,4.32
2023-02-12T11:23:58.539Z,4.43
2023-02-12T11:25:36.248Z,4.46
2023-02-12T11:27:17.213Z,4.52
2023-02-12T11:28:57.571Z,4.42
2023-02-12T11:30:30.290Z,4.37
2023-02-12T11:32:05.693Z,4.37
2023-02-12T11:33:39.338Z,4.30
2023-02-12T11:35:15.874Z,4.31
2023-02-12T11:36:50.812Z,4.16
2023-02-12T11:38:32.195Z,4.21
2023-02-12T11:40:05.167Z,4.20
2023-02-12T11:41:39.717Z,4.20
2023-02-12T11:43:17.696Z,4.24
2023-02-12T11:44:59.926Z,4.16
2023-02-12T11:46:32.124Z,4.02
2023-02-12T11:48:21.697Z,4.12
2023-02-12T11:52:00.877Z,4.30
2023-02-12T11:53:35.549Z,4.33
2023-02-12T11:55:21.741Z,4.24
2023-02-12T11:56:55.765Z,4.20
2023-02-12T11:58:28.747Z,4.33
2023-02-12T12:00:05.372Z,4.43
2023-02-12T12:01:38.951Z,4.54
2023-02-12T12:03:19.791Z,4.66
2023-02-12T12:04:55.653Z,4.65
2023-02-12T12:06:50.390Z,4.81
2023-02-12T12:08:27.572Z,4.94
2023-02-12T12:10:06.837Z,5.02
2023-02-12T12:12:03.536Z,4.89
2023-02-12T12:13:43.953Z,4.82
2023-02-12T12:15:48.766Z,4.79
2023-02-12T12:17:43.281Z,4.82
2023-02-12T12:22:10.743Z,5.18
2023-02-12T12:23:46.881Z,5.27
2023-02-12T12:25:44.515Z,5.34
2023-02-12T12:28:08.597Z,5.38
2023-02-12T12:29:51.869Z,5.53
2023-02-12T12:31:46.818Z,5.59
2023-02-12T12:33:42.159Z,5.56
2023-02-12T12:35:16.421Z,5.56
2023-02-12T12:37:16.209Z,5.63
2023-02-12T12:38:48.181Z,5.56
2023-02-12T12:40:34.067Z,5.66
2023-02-12T12:42:17.877Z,5.68
2023-02-12T12:44:05.165Z,5.74
2023-02-12T12:45:52.219Z,5.73
2023-02-12T12:48:02.260Z,5.77
2023-02-12T12:49:55.300Z,5.68
2023-02-12T12:51:49.276Z,5.62
2023-02-12T12:54:02.141Z,5.64
2023-02-12T12:56:03.938Z,5.70
2023-02-12T12:57:58.261Z,5.67
2023-02-12T12:59:43.794Z,5.67
2023-02-12T13:01:34.126Z,5.58
2023-02-12T13:03:32.210Z,5.58
2023-02-12T13:05:41.833Z,5.62
2023-02-12T13:07:43.501Z,5.58
2023-02-12T13:09:55.108Z,5.60
2023-02-12T13:11:46.088Z,5.53
2023-02-12T13:13:36.113Z,5.55
2023-02-12T13:15:29.562Z,5.44
2023-02-12T13:17:10.314Z,5.38
2023-02-12T13:18:47.985Z,5.40
2023-02-12T13:20:56.618Z,5.51
2023-02-12T13:22:36.591Z,5.48
2023-02-12T13:26:08.777Z,5.51
2023-02-12T13:27:42.807Z,5.46
2023-02-12T13:29:43.733Z,5.48
2023-02-12T13:31:32.503Z,5.52
2023-02-12T13:33:08.576Z,5.54
2023-02-12T13:34:42.310Z,5.50
2023-02-12T13:36:15.653Z,5.52
2023-02-12T13:37:50.743Z,5.48
2023-02-12T13:39:36.532Z,5.44
2023-02-12T13:41:10.495Z,5.40
2023-02-12T13:43:07.948Z,5.40
2023-02-12T13:45:27.977Z,5.38
2023-02-12T13:47:39.686Z,5.36
2023-02-12T13:49:22.036Z,5.36
2023-02-12T13:51:05.641Z,5.33
2023-02-12T13:52:45.225Z,5.30
2023-02-12T13:54:30.139Z,5.24
2023-02-12T13:56:06.306Z,5.20
2023-02-12T13:57:38.378Z,5.16
2023-02-12T13:59:35.212Z,5.02
2023-02-12T14:01:42.279Z,4.98
2023-02-12T14:03:15.190Z,4.89
2023-02-12T14:04:56.940Z,4.89
2023-02-12T14:06:35.327Z,4.90
2023-02-12T14:08:08.402Z,4.84
2023-02-12T14:09:42.657Z,4.89
2023-02-12T14:11:17.836Z,4.91
2023-02-12T14:12:50.460Z,4.85
2023-02-12T14:14:29.279Z,4.78
2023-02-12T14:16:20.577Z,4.79
2023-02-12T14:17:55.407Z,4.60
2023-02-12T14:19:40.868Z,4.57
2023-02-12T14:21:12.983Z,4.39
2023-02-12T14:22:45.030Z,4.34
2023-02-12T14:24:39.022Z,4.42
2023-02-12T14:26:14.628Z,4.29
2023-02-12T14:27:49.919Z,4.30
2023-02-12T14:29:22.789Z,4.30
2023-02-12T14:31:20.093Z,4.33
2023-02-12T14:59:25.875Z,3.91
2023-02-12T15:01:00.268Z,3.94
2023-02-12T15:02:35.542Z,3.90
2023-02-12T15:04:20.697Z,3.84
2023-02-12T15:06:03.642Z,3.85
2023-02-12T15:07:45.418Z,3.86
2023-02-12T15:09:22.569Z,3.85
2023-02-12T15:11:01.877Z,3.87
2023-02-12T15:12:39.975Z,3.89
2023-02-12T15:14:46.477Z,3.80
2023-02-12T15:16:24.901Z,3.82
2023-02-12T15:18:20.747Z,3.80
2023-02-12T15:19:57.692Z,3.79
2023-02-12T15:21:32.053Z,3.76
2023-02-12T15:23:34.377Z,3.79
2023-02-12T15:25:25.834Z,3.79
2023-02-12T15:27:01.406Z,3.75
2023-02-12T15:28:37.908Z,3.77
2023-02-12T15:30:26.229Z,3.75
2023-02-12T15:32:01.254Z,3.70
2023-02-12T15:33:35.212Z,3.70
2023-02-12T15:35:07.794Z,3.66
2023-02-12T15:36:40.262Z,3.65
2023-02-12T15:38:23.588Z,3.67
2023-02-12T15:39:59.566Z,3.64
2023-02-12T15:41:34.529Z,3.64
2023-02-12T15:43:07.525Z,3.61
2023-02-12T15:44:39.732Z,3.55
2023-02-12T15:46:17.547Z,3.57
2023-02-12T15:48:00.913Z,3.57
2023-02-12T15:49:38.381Z,3.54
2023-02-12T15:51:25.510Z,3.53
2023-02-12T15:52:57.699Z,3.47
2023-02-12T15:54:33.344Z,3.45
2023-02-12T15:56:05.665Z,3.43
2023-02-12T15:57:37.876Z,3.40
2023-02-12T15:59:20.726Z,3.43
2023-02-12T16:00:54.129Z,3.39
2023-02-12T16:02:29.533Z,3.39
2023-02-12T16:04:07.743Z,3.38
2023-02-12T16:05:42.907Z,3.39
2023-02-12T16:07:15.784Z,3.35
2023-02-12T16:08:50.622Z,3.32
2023-02-12T16:10:23.214Z,3.31
2023-02-12T16:11:57.680Z,3.30
2023-02-12T16:13:33.137Z,3.30
2023-02-12T16:15:05.760Z,3.23
2023-02-12T16:16:46.378Z,3.27
2023-02-12T16:18:28.159Z,3.23
2023-02-12T16:20:03.318Z,3.20
2023-02-12T16:21:37.911Z,3.17
2023-02-12T16:23:10.064Z,3.15
2023-02-12T16:24:50.530Z,3.17
2023-02-12T16:26:26.890Z,3.15
2023-02-12T16:28:18.720Z,3.12
2023-02-12T16:29:54.006Z,3.09
2023-02-12T16:31:39.611Z,2.98
2023-02-12T16:33:34.326Z,3.05
2023-02-12T16:35:12.452Z,3.06
2023-02-12T16:36:47.146Z,3.01
2023-02-12T16:38:28.337Z,3.01
2023-02-12T16:40:01.260Z,2.95
2023-02-12T16:41:34.634Z,2.93
2023-02-12T16:43:24.568Z,2.96
2023-02-12T16:44:57.009Z,2.89
2023-02-12T16:46:35.009Z,2.93
2023-02-12T16:48:10.794Z,2.90
2023-02-12T16:49:54.743Z,2.90
2023-02-12T16:51:33.493Z,2.90
2023-02-12T16:53:08.674Z,2.86
2023-02-12T16:54:40.698Z,2.82
2023-02-12T16:56:18.570Z,2.81
2023-02-12T16:57:50.704Z,2.78
2023-02-12T16:59:22.792Z,2.76
2023-02-12T17:00:57.652Z,2.75
2023-02-12T17:02:29.988Z,2.74
2023-02-12T17:04:07.143Z,2.75
2023-02-12T17:05:41.857Z,2.69
2023-02-12T17:08:45.675Z,2.61
2023-02-12T17:10:18.646Z,2.56
2023-02-12T17:11:50.685Z,2.53
2023-02-12T17:13:22.755Z,2.51
2023-02-12T17:14:56.162Z,2.49
2023-02-12T17:16:31.281Z,2.47
2023-02-12T17:18:04.662Z,2.45
2023-02-12T17:19:36.750Z,2.43
2023-02-12T17:21:19.372Z,2.43
2023-02-12T17:22:53.860Z,2.39
2023-02-12T17:24:27.953Z,2.37
2023-02-12T17:26:00.036Z,2.32
2023-02-12T17:27:32.433Z,2.31
2023-02-12T17:29:05.682Z,2.33
2023-02-12T17:30:37.752Z,2.32
2023-02-12T17:32:09.948Z,2.30
2023-02-12T17:33:42.169Z,2.32
2023-02-12T17:35:14.725Z,2.30
2023-02-12T17:36:47.062Z,2.25
2023-02-12T17:38:19.330Z,2.23
2023-02-12T17:39:51.957Z,2.22
2023-02-12T17:41:24.806Z,2.18
2023-02-12T17:42:56.997Z,2.14
2023-02-12T17:44:29.028Z,2.15
2023-02-12T17:46:01.432Z,2.15
2023-02-12T17:47:39.994Z,2.14
2023-02-12T17:49:12.313Z,2.13
2023-02-12T17:50:44.434Z,2.12
2023-02-12T17:52:16.512Z,2.12
2023-02-12T17:53:48.976Z,2.09
2023-02-12T17:55:21.131Z,2.05
2023-02-12T17:56:53.232Z,2.01
2023-02-12T17:58:25.231Z,2.00
2023-02-12T17:59:57.239Z,1.97
2023-02-12T18:01:29.396Z,1.96
2023-02-12T18:03:01.502Z,1.95
2023-02-12T18:04:36.106Z,1.92
2023-02-12T18:06:09.308Z,1.95
2023-02-12T18:07:41.445Z,1.92
2023-02-12T18:09:13.445Z,1.92
2023-02-12T18:12:17.376Z,1.92
2023-02-12T18:13:53.002Z,1.93
2023-02-12T18:15:25.551Z,1.88
2023-02-12T18:16:57.783Z,1.86
2023-02-12T18:18:29.928Z,1.86
2023-02-12T18:20:02.279Z,1.87
2023-02-12T18:21:35.576Z,1.84
2023-02-12T18:23:08.979Z,1.81
2023-02-12T18:24:44.483Z,1.78
2023-02-12T18:26:18.092Z,1.80
2023-02-12T18:27:50.032Z,1.82
2023-02-12T18:29:22.225Z,1.72
2023-02-12T18:30:58.910Z,1.74
2023-02-12T18:32:31.451Z,1.67
2023-02-12T18:34:05.786Z,1.69
2023-02-12T18:35:38.014Z,1.64
2023-02-12T18:37:12.209Z,1.64
2023-02-12T18:38:45.706Z,1.60
2023-02-12T18:40:18.050Z,1.57
2023-02-12T18:41:50.390Z,1.57
2023-02-12T18:43:24.670Z,1.57
2023-02-12T18:44:56.886Z,1.55
2023-02-12T18:46:30.961Z,1.56
2023-02-12T18:48:03.079Z,1.53
2023-02-12T18:49:35.343Z,1.52
2023-02-12T18:51:09.287Z,1.52
2023-02-12T18:52:41.403Z,1.47
2023-02-12T18:54:14.482Z,1.46
2023-02-12T18:55:46.866Z,1.42
2023-02-12T18:57:19.331Z,1.37
2023-02-12T18:58:56.630Z,1.36
2023-02-12T19:00:28.724Z,1.35
2023-02-12T19:02:04.333Z,1.38
2023-02-12T19:03:36.595Z,1.36
2023-02-12T19:05:10.606Z,1.37
2023-02-12T19:06:47.069Z,1.39
2023-02-12T19:08:19.737Z,1.40
2023-02-12T19:11:25.009Z,1.41
2023-02-12T19:12:57.327Z,1.38
2023-02-12T19:14:29.503Z,1.38
2023-02-12T19:16:07.759Z,1.23
2023-02-12T19:17:40.181Z,1.18
2023-02-12T19:19:13.367Z,1.19
2023-02-12T19:20:45.891Z,1.19
2023-02-12T19:22:18.853Z,1.21
2023-02-12T19:23:55.903Z,1.24
2023-02-12T19:25:28.167Z,1.21
2023-02-12T19:27:00.467Z,1.23
2023-02-12T19:28:32.700Z,1.22
2023-02-12T19:30:06.317Z,1.20
2023-02-12T19:31:39.529Z,1.24
2023-02-12T19:33:13.015Z,1.13
2023-02-12T19:34:46.327Z,1.11
2023-02-12T19:36:19.571Z,1.11
2023-02-12T19:37:51.972Z,1.09
2023-02-12T19:39:25.022Z,1.05
2023-02-12T19:41:08.476Z,1.05
2023-02-12T19:42:40.600Z,0.98
2023-02-12T19:44:24.414Z,0.97
2023-02-12T19:46:02.287Z,0.93
2023-02-12T19:47:34.390Z,0.85
2023-02-12T19:49:12.527Z,0.81
2023-02-12T19:50:47.736Z,0.79
2023-02-12T19:52:19.798Z,0.70
2023-02-12T19:53:52.677Z,0.70
2023-02-12T19:55:24.640Z,0.69
2023-02-12T19:56:56.836Z,0.68
2023-02-12T19:58:30.718Z,0.69
2023-02-12T20:00:02.920Z,0.69
2023-02-12T20:01:35.845Z,0.71
2023-02-12T20:03:07.991Z,0.67
2023-02-12T20:04:40.301Z,0.63
2023-02-12T20:06:16.032Z,0.63
2023-02-12T20:07:51.025Z,0.57
2023-02-12T20:09:23.406Z,0.57
2023-02-12T20:10:55.895Z,0.58
2023-02-12T20:12:28.194Z,0.58
2023-02-12T20:15:32.206Z,0.61
2023-02-12T20:17:06.221Z,0.59
2023-02-12T20:18:40.760Z,0.56
2023-02-12T20:20:14.005Z,0.58
2023-02-12T20:21:49.052Z,0.58
2023-02-12T20:23:21.069Z,0.57
2023-02-12T20:24:53.196Z,0.59
2023-02-12T20:26:25.866Z,0.59
2023-02-12T20:27:59.668Z,0.59
2023-02-12T20:29:31.760Z,0.53
2023-02-12T20:31:19.096Z,0.55
2023-02-12T20:32:51.265Z,0.51
2023-02-12T20:34:23.505Z,0.52
2023-02-12T20:35:57.247Z,0.54
2023-02-12T20:37:29.375Z,0.55
2023-02-12T20:39:01.813Z,0.59
2023-02-12T20:40:34.180Z,0.55
2023-02-12T20:42:06.247Z,0.53
2023-02-12T20:43:39.013Z,0.49
2023-02-12T20:45:12.345Z,0.51
2023-02-12T20:46:45.604Z,0.50
2023-02-12T20:48:18.402Z,0.47
2023-02-12T20:49:50.416Z,0.49
2023-02-12T20:51:24.895Z,0.52
2023-02-12T20:52:56.928Z,0.51
2023-02-12T20:54:28.939Z,0.51
2023-02-12T20:56:03.026Z,0.55
2023-02-12T20:57:35.172Z,0.52
2023-02-12T20:59:07.791Z,0.51
2023-02-12T21:00:39.802Z,0.47
2023-02-12T21:02:12.264Z,0.45
2023-02-12T21:03:45.276Z,0.42
2023-02-12T21:05:17.349Z,0.36
2023-02-12T21:06:49.375Z,0.35
2023-02-12T21:08:21.406Z,0.33
2023-02-12T21:09:54.497Z,0.30
2023-02-12T21:11:29.740Z,0.29
2023-02-12T21:14:34.668Z,0.17
2023-02-12T21:16:10.110Z,0.20
2023-02-12T21:17:42.157Z,0.18
2023-02-12T21:19:14.411Z,0.16
2023-02-12T21:20:46.548Z,0.14
2023-02-12T21:22:18.726Z,0.12
2023-02-12T21:23:53.770Z,0.12
2023-02-12T21:25:27.077Z,0.09
2023-02-12T21:26:59.294Z,0.08
2023-02-12T21:28:34.759Z,0.05
2023-02-12T21:30:09.327Z,-0.01
2023-02-12T21:31:43.760Z,-0.07
2023-02-12T21:33:16.251Z,-0.11
2023-02-12T21:34:49.036Z,-0.13
2023-02-12T21:36:24.243Z,-0.10
2023-02-12T21:37:56.385Z,-0.12
2023-02-12T21:39:28.891Z,-0.10
2023-02-12T21:41:17.308Z,-0.03
2023-02-12T21:42:49.296Z,-0.08
2023-02-12T21:44:22.534Z,-0.05
2023-02-12T21:45:54.730Z,-0.11
2023-02-12T21:47:27.602Z,-0.10
2023-02-12T21:48:59.656Z,-0.09
2023-02-12T21:50:31.702Z,-0.10
2023-02-12T21:52:06.884Z,-0.09
2023-02-12T21:53:38.893Z,-0.12
2023-02-12T21:55:10.956Z,-0.12
2023-02-12T21:56:45.623Z,-0.09
2023-02-12T21:58:17.972Z,-0.11
2023-02-12T21:59:50.075Z,-0.15
2023-02-12T22:01:28.021Z,-0.14
2023-02-12T22:03:00.162Z,-0.16